sensor_id;sensor_type;location;lat;lon;timestamp;pressure;altitude;pressure_sealevel;temperature;humidity
7748;BME280;3918;42.564;23.164;2023-04-19T04:06:06;-11650.84;;;-142.29;100.00
7748;BME280;3918;42.564;23.164;2023-04-19T04:08:32;-11650.84;;;-142.29;100.00
7748;BME280;3918;42.564;23.164;2023-04-19T04:10:59;-11650.84;;;-142.29;100.00
7748;BME280;3918;42.564;23.164;2023-04-19T04:13:26;-11650.84;;;-142.29;100.00
7748;BME280;3918;42.564;23.164;2023-04-19T04:15:53;-11650.84;;;-142.29;100.00
7748;BME280;3918;42.564;23.164;2023-04-19T04:18:19;-11650.84;;;-142.29;100.00
7748;BME280;3918;42.564;23.164;2023-04-19T04:20:46;-11650.84;;;-142.29;100.00
7748;BME280;3918;42.564;23.164;2023-04-19T04:23:15;-11650.84;;;-142.29;100.00
7748;BME280;3918;42.564;23.164;2023-04-19T04:25:41;-11650.84;;;-142.29;100.00
7748;BME280;3918;42.564;23.164;2023-04-19T04:28:08;-11650.84;;;-142.29;100.00
7748;BME280;3918;42.564;23.164;2023-04-19T04:30:35;-11650.84;;;-142.29;100.00
7748;BME280;3918;42.564;23.164;2023-04-19T04:33:02;-11650.84;;;-142.29;100.00
7748;BME280;3918;42.564;23.164;2023-04-19T04:35:28;-11650.84;;;-142.29;100.00
7748;BME280;3918;42.564;23.164;2023-04-19T04:37:55;-11650.84;;;-142.29;100.00
7748;BME280;3918;42.564;23.164;2023-04-19T04:40:23;-11650.84;;;-142.29;100.00
7748;BME280;3918;42.564;23.164;2023-04-19T04:42:50;-11650.84;;;-142.29;100.00
7748;BME280;3918;42.564;23.164;2023-04-19T04:45:18;-11650.84;;;-142.29;100.00
7748;BME280;3918;42.564;23.164;2023-04-19T04:47:46;-11650.84;;;-142.29;100.00
7748;BME280;3918;42.564;23.164;2023-04-19T04:50:12;-11650.84;;;-142.29;100.00
7748;BME280;3918;42.564;23.164;2023-04-19T04:52:39;-11650.84;;;-142.29;100.00
7748;BME280;3918;42.564;23.164;2023-04-19T04:55:06;-11650.84;;;-142.29;100.00
7748;BME280;3918;42.564;23.164;2023-04-19T04:57:35;-11650.84;;;-142.29;100.00
7748;BME280;3918;42.564;23.164;2023-04-19T05:00:02;-11650.84;;;-142.29;100.00
7748;BME280;3918;42.564;23.164;2023-04-19T05:02:31;-11650.84;;;-142.29;100.00
7748;BME280;3918;42.564;23.164;2023-04-19T05:04:58;-11650.84;;;-142.29;100.00
7748;BME280;3918;42.564;23.164;2023-04-19T05:07:24;-11650.84;;;-142.29;100.00
7748;BME280;3918;42.564;23.164;2023-04-19T05:09:51;-11650.84;;;-142.29;100.00
7748;BME280;3918;42.564;23.164;2023-04-19T05:12:18;-11650.84;;;-142.29;100.00
7748;BME280;3918;42.564;23.164;2023-04-19T05:14:46;-11650.84;;;-142.29;100.00
7748;BME280;3918;42.564;23.164;2023-04-19T05:17:13;-11650.84;;;-142.29;100.00
7748;BME280;3918;42.564;23.164;2023-04-19T05:19:39;-11650.84;;;-142.29;100.00
7748;BME280;3918;42.564;23.164;2023-04-19T05:22:06;-11650.84;;;-142.29;100.00
7748;BME280;3918;42.564;23.164;2023-04-19T05:24:33;-11650.84;;;-142.29;100.00
7748;BME280;3918;42.564;23.164;2023-04-19T05:26:59;-11650.84;;;-142.29;100.00
7748;BME280;3918;42.564;23.164;2023-04-19T05:29:27;-11650.84;;;-142.29;100.00
7748;BME280;3918;42.564;23.164;2023-04-19T05:31:56;-11650.84;;;-142.29;100.00
7748;BME280;3918;42.564;23.164;2023-04-19T05:34:23;-11650.84;;;-142.29;100.00
7748;BME280;3918;42.564;23.164;2023-04-19T05:36:50;-11650.84;;;-142.29;100.00
7748;BME280;3918;42.564;23.164;2023-04-19T05:39:17;-11650.84;;;-142.29;100.00
7748;BME280;3918;42.564;23.164;2023-04-19T05:41:43;-11650.84;;;-142.29;100.00
7748;BME280;3918;42.564;23.164;2023-04-19T05:44:10;-11650.84;;;-142.29;100.00
7748;BME280;3918;42.564;23.164;2023-04-19T05:46:37;-11650.84;;;-142.29;100.00
7748;BME280;3918;42.564;23.164;2023-04-19T05:49:05;-11650.84;;;-142.29;100.00
7748;BME280;3918;42.564;23.164;2023-04-19T05:51:32;-11650.84;;;-142.29;100.00
7748;BME280;3918;42.564;23.164;2023-04-19T05:53:59;-11650.84;;;-142.29;100.00
7748;BME280;3918;42.564;23.164;2023-04-19T05:56:25;-11650.84;;;-142.29;100.00
7748;BME280;3918;42.564;23.164;2023-04-19T05:58:52;-11650.84;;;-142.29;100.00
7748;BME280;3918;42.564;23.164;2023-04-19T06:01:20;-11650.84;;;-142.29;100.00
7748;BME280;3918;42.564;23.164;2023-04-19T06:03:47;-11650.84;;;-142.29;100.00
7748;BME280;3918;42.564;23.164;2023-04-19T06:06:20;-11650.84;;;-142.29;100.00
7748;BME280;3918;42.564;23.164;2023-04-19T06:08:47;-11650.84;;;-142.29;100.00
7748;BME280;3918;42.564;23.164;2023-04-19T06:11:14;-11650.84;;;-142.29;100.00
7748;BME280;3918;42.564;23.164;2023-04-19T06:13:40;-11650.84;;;-142.29;100.00
7748;BME280;3918;42.564;23.164;2023-04-19T06:16:07;-11650.84;;;-142.29;100.00
7748;BME280;3918;42.564;23.164;2023-04-19T06:18:34;-11650.84;;;-142.29;100.00
7748;BME280;3918;42.564;23.164;2023-04-19T06:21:01;-11650.84;;;-142.29;100.00
7748;BME280;3918;42.564;23.164;2023-04-19T06:23:29;-11650.84;;;-142.29;100.00
7748;BME280;3918;42.564;23.164;2023-04-19T06:25:56;-11650.84;;;-142.29;100.00
7748;BME280;3918;42.564;23.164;2023-04-19T06:28:22;-11650.84;;;-142.29;100.00
7748;BME280;3918;42.564;23.164;2023-04-19T06:30:49;-11650.84;;;-142.29;100.00
7748;BME280;3918;42.564;23.164;2023-04-19T06:33:16;-11650.84;;;-142.29;100.00
7748;BME280;3918;42.564;23.164;2023-04-19T06:35:42;-11650.84;;;-142.29;100.00
7748;BME280;3918;42.564;23.164;2023-04-19T06:38:09;-11650.84;;;-142.29;100.00
7748;BME280;3918;42.564;23.164;2023-04-19T06:40:37;-11650.84;;;-142.29;100.00
7748;BME280;3918;42.564;23.164;2023-04-19T06:43:04;-11650.84;;;-142.29;100.00
7748;BME280;3918;42.564;23.164;2023-04-19T06:45:31;-11650.84;;;-142.29;100.00
7748;BME280;3918;42.564;23.164;2023-04-19T06:47:57;-11650.84;;;-142.29;100.00
7748;BME280;3918;42.564;23.164;2023-04-19T06:50:24;-11650.84;;;-142.29;100.00
7748;BME280;3918;42.564;23.164;2023-04-19T06:52:51;-11650.84;;;-142.29;100.00
7748;BME280;3918;42.564;23.164;2023-04-19T06:55:18;-11650.84;;;-142.29;100.00
7748;BME280;3918;42.564;23.164;2023-04-19T06:57:46;-11650.84;;;-142.29;100.00
7748;BME280;3918;42.564;23.164;2023-04-19T07:00:14;-11650.84;;;-142.29;100.00
7748;BME280;3918;42.564;23.164;2023-04-19T07:02:41;-11650.84;;;-142.29;100.00
7748;BME280;3918;42.564;23.164;2023-04-19T07:05:07;-11650.84;;;-142.29;100.00
7748;BME280;3918;42.564;23.164;2023-04-19T07:07:34;-11650.84;;;-142.29;100.00
7748;BME280;3918;42.564;23.164;2023-04-19T07:10:02;-11650.84;;;-142.29;100.00
7748;BME280;3918;42.564;23.164;2023-04-19T07:12:29;-11650.84;;;-142.29;100.00
7748;BME280;3918;42.564;23.164;2023-04-19T07:14:57;-11650.84;;;-142.29;100.00
7748;BME280;3918;42.564;23.164;2023-04-19T07:17:24;-11650.84;;;-142.29;100.00
7748;BME280;3918;42.564;23.164;2023-04-19T07:19:51;-11650.84;;;-142.29;100.00
7748;BME280;3918;42.564;23.164;2023-04-19T07:22:18;-11650.84;;;-142.29;100.00
7748;BME280;3918;42.564;23.164;2023-04-19T07:24:44;-11650.84;;;-142.29;100.00
7748;BME280;3918;42.564;23.164;2023-04-19T07:27:11;-11650.84;;;-142.29;100.00
7748;BME280;3918;42.564;23.164;2023-04-19T07:29:38;-11650.84;;;-142.29;100.00
7748;BME280;3918;42.564;23.164;2023-04-19T07:32:07;-11650.84;;;-142.29;100.00
7748;BME280;3918;42.564;23.164;2023-04-19T07:34:36;-11650.84;;;-142.29;100.00
7748;BME280;3918;42.564;23.164;2023-04-19T07:37:03;-11650.84;;;-142.29;100.00
7748;BME280;3918;42.564;23.164;2023-04-19T07:39:30;-11650.84;;;-142.29;100.00
7748;BME280;3918;42.564;23.164;2023-04-19T07:41:56;-11650.84;;;-142.29;100.00
7748;BME280;3918;42.564;23.164;2023-04-19T07:44:23;-11650.84;;;-142.29;100.00
7748;BME280;3918;42.564;23.164;2023-04-19T07:46:50;-11650.84;;;-142.29;100.00
7748;BME280;3918;42.564;23.164;2023-04-19T07:49:18;-11650.84;;;-142.29;100.00
7748;BME280;3918;42.564;23.164;2023-04-19T07:51:45;-11650.84;;;-142.29;100.00
7748;BME280;3918;42.564;23.164;2023-04-19T07:54:11;-11650.84;;;-142.29;100.00
7748;BME280;3918;42.564;23.164;2023-04-19T07:56:40;-11650.84;;;-142.29;100.00
7748;BME280;3918;42.564;23.164;2023-04-19T07:59:07;-11650.84;;;-142.29;100.00
7748;BME280;3918;42.564;23.164;2023-04-19T08:01:34;-11650.84;;;-142.29;91.75
7748;BME280;3918;42.564;23.164;2023-04-19T08:04:01;-11650.84;;;-142.29;85.84
7748;BME280;3918;42.564;23.164;2023-04-19T08:06:29;-11650.84;;;-142.29;82.58
7748;BME280;3918;42.564;23.164;2023-04-19T08:08:56;-11650.84;;;-142.29;67.01
7748;BME280;3918;42.564;23.164;2023-04-19T08:11:23;-11650.84;;;-142.29;68.25
7748;BME280;3918;42.564;23.164;2023-04-19T08:13:50;-11650.84;;;-142.29;62.65
7748;BME280;3918;42.564;23.164;2023-04-19T08:16:17;-11650.84;;;-142.29;62.49
7748;BME280;3918;42.564;23.164;2023-04-19T08:18:44;-11650.84;;;-142.29;65.46
7748;BME280;3918;42.564;23.164;2023-04-19T08:21:12;-11650.84;;;-142.29;65.06
7748;BME280;3918;42.564;23.164;2023-04-19T08:23:40;-11650.84;;;-142.29;66.84
7748;BME280;3918;42.564;23.164;2023-04-19T08:26:07;-11650.84;;;-142.29;66.76
7748;BME280;3918;42.564;23.164;2023-04-19T08:28:34;-11650.84;;;-142.29;66.42
7748;BME280;3918;42.564;23.164;2023-04-19T08:31:04;-11650.84;;;-142.29;63.64
7748;BME280;3918;42.564;23.164;2023-04-19T08:33:31;-11650.84;;;-142.29;62.43
7748;BME280;3918;42.564;23.164;2023-04-19T08:35:58;-11650.84;;;-142.29;59.37
7748;BME280;3918;42.564;23.164;2023-04-19T08:38:25;-11650.84;;;-142.29;54.99
7748;BME280;3918;42.564;23.164;2023-04-19T08:40:53;-11650.84;;;-142.29;51.78
7748;BME280;3918;42.564;23.164;2023-04-19T08:43:20;-11650.84;;;-142.29;51.94
7748;BME280;3918;42.564;23.164;2023-04-19T08:45:50;-11650.84;;;-142.29;54.11
7748;BME280;3918;42.564;23.164;2023-04-19T08:48:17;-11650.84;;;-142.29;55.20
7748;BME280;3918;42.564;23.164;2023-04-19T08:50:44;-11650.84;;;-142.29;57.22
7748;BME280;3918;42.564;23.164;2023-04-19T08:53:11;-11650.84;;;-142.29;57.27
7748;BME280;3918;42.564;23.164;2023-04-19T08:55:40;-11650.84;;;-142.29;59.47
7748;BME280;3918;42.564;23.164;2023-04-19T08:58:08;-11650.84;;;-142.29;56.41
7748;BME280;3918;42.564;23.164;2023-04-19T09:00:38;-11650.84;;;-142.29;60.92
7748;BME280;3918;42.564;23.164;2023-04-19T09:03:06;-11650.84;;;-142.29;68.74
7748;BME280;3918;42.564;23.164;2023-04-19T09:05:33;-11650.84;;;-142.29;74.19
7748;BME280;3918;42.564;23.164;2023-04-19T09:08:21;-11650.84;;;-142.29;73.43
7748;BME280;3918;42.564;23.164;2023-04-19T09:10:53;-11650.84;;;-142.29;66.59
7748;BME280;3918;42.564;23.164;2023-04-19T09:13:21;-11650.84;;;-142.29;60.18
7748;BME280;3918;42.564;23.164;2023-04-19T09:15:48;-11650.84;;;-142.29;56.05
7748;BME280;3918;42.564;23.164;2023-04-19T09:18:16;-11650.84;;;-142.29;57.49
7748;BME280;3918;42.564;23.164;2023-04-19T09:20:44;-11650.84;;;-142.29;59.54
7748;BME280;3918;42.564;23.164;2023-04-19T09:23:14;-11650.84;;;-142.29;60.29
7748;BME280;3918;42.564;23.164;2023-04-19T09:25:51;-11650.84;;;-142.29;68.98
7748;BME280;3918;42.564;23.164;2023-04-19T09:28:18;-11650.84;;;-142.29;62.83
7748;BME280;3918;42.564;23.164;2023-04-19T09:30:47;-11650.84;;;-142.29;62.18
7748;BME280;3918;42.564;23.164;2023-04-19T09:33:30;-11650.84;;;-142.29;65.51
7748;BME280;3918;42.564;23.164;2023-04-19T09:35:58;-11650.84;;;-142.29;58.49
7748;BME280;3918;42.564;23.164;2023-04-19T09:38:25;-11650.84;;;-142.29;55.60
7748;BME280;3918;42.564;23.164;2023-04-19T09:41:04;-11650.84;;;-142.29;55.71
7748;BME280;3918;42.564;23.164;2023-04-19T09:43:32;-11650.84;;;-142.29;58.06
7748;BME280;3918;42.564;23.164;2023-04-19T09:46:00;-11650.84;;;-142.29;62.81
7748;BME280;3918;42.564;23.164;2023-04-19T09:48:27;-11650.84;;;-142.29;60.08
7748;BME280;3918;42.564;23.164;2023-04-19T09:50:54;-11650.84;;;-142.29;57.90
7748;BME280;3918;42.564;23.164;2023-04-19T09:53:23;-11650.84;;;-142.29;58.21
7748;BME280;3918;42.564;23.164;2023-04-19T09:55:50;-11650.84;;;-142.29;59.69
7748;BME280;3918;42.564;23.164;2023-04-19T09:58:18;-11650.84;;;-142.29;65.30
7748;BME280;3918;42.564;23.164;2023-04-19T10:00:46;-11650.84;;;-142.29;59.30
7748;BME280;3918;42.564;23.164;2023-04-19T10:03:15;-11650.84;;;-142.29;61.10
7748;BME280;3918;42.564;23.164;2023-04-19T10:05:43;-11650.84;;;-142.29;58.23
7748;BME280;3918;42.564;23.164;2023-04-19T10:08:11;-11650.84;;;-142.29;60.37
7748;BME280;3918;42.564;23.164;2023-04-19T10:10:39;-11650.84;;;-142.29;70.91
7748;BME280;3918;42.564;23.164;2023-04-19T10:13:08;-11650.84;;;-142.29;72.26
7748;BME280;3918;42.564;23.164;2023-04-19T10:15:36;-11650.84;;;-142.29;77.97
7748;BME280;3918;42.564;23.164;2023-04-19T10:18:04;-11650.84;;;-142.29;73.44
7748;BME280;3918;42.564;23.164;2023-04-19T10:20:38;-11650.84;;;-142.29;71.18
7748;BME280;3918;42.564;23.164;2023-04-19T10:23:08;-11650.84;;;-142.29;63.01
7748;BME280;3918;42.564;23.164;2023-04-19T10:25:36;-11650.84;;;-142.29;69.36
7748;BME280;3918;42.564;23.164;2023-04-19T10:28:03;-11650.84;;;-142.29;61.40
7748;BME280;3918;42.564;23.164;2023-04-19T10:30:30;-11650.84;;;-142.29;69.59
7748;BME280;3918;42.564;23.164;2023-04-19T10:32:58;-11650.84;;;-142.29;61.29
7748;BME280;3918;42.564;23.164;2023-04-19T10:35:32;-11650.84;;;-142.29;59.99
7748;BME280;3918;42.564;23.164;2023-04-19T10:38:08;-11650.84;;;-142.29;57.38
7748;BME280;3918;42.564;23.164;2023-04-19T10:40:56;-11650.84;;;-142.29;51.62
7748;BME280;3918;42.564;23.164;2023-04-19T10:43:25;-11650.84;;;-142.29;55.97
7748;BME280;3918;42.564;23.164;2023-04-19T10:45:52;-11650.84;;;-142.29;56.36
7748;BME280;3918;42.564;23.164;2023-04-19T10:48:39;-11650.84;;;-142.29;59.19
7748;BME280;3918;42.564;23.164;2023-04-19T10:51:12;-11650.84;;;-142.29;66.34
7748;BME280;3918;42.564;23.164;2023-04-19T10:53:50;-11650.84;;;-142.29;62.76
7748;BME280;3918;42.564;23.164;2023-04-19T10:56:19;-11650.84;;;-142.29;64.07
7748;BME280;3918;42.564;23.164;2023-04-19T10:59:11;-11650.84;;;-142.29;69.29
7748;BME280;3918;42.564;23.164;2023-04-19T11:01:40;-11650.84;;;-142.29;67.64
7748;BME280;3918;42.564;23.164;2023-04-19T11:04:08;-11650.84;;;-142.29;67.03
7748;BME280;3918;42.564;23.164;2023-04-19T11:06:36;-11650.84;;;-142.29;65.22
7748;BME280;3918;42.564;23.164;2023-04-19T11:09:05;-11650.84;;;-142.29;67.76
7748;BME280;3918;42.564;23.164;2023-04-19T11:11:34;-11650.84;;;-142.29;66.98
7748;BME280;3918;42.564;23.164;2023-04-19T11:14:02;-11650.84;;;-142.29;66.33
7748;BME280;3918;42.564;23.164;2023-04-19T11:16:29;-11650.84;;;-142.29;65.15
7748;BME280;3918;42.564;23.164;2023-04-19T11:18:56;-11650.84;;;-142.29;63.99
7748;BME280;3918;42.564;23.164;2023-04-19T11:21:23;-11650.84;;;-142.29;62.59
7748;BME280;3918;42.564;23.164;2023-04-19T11:26:45;-11650.84;;;-142.29;59.42
7748;BME280;3918;42.564;23.164;2023-04-19T11:29:13;-11650.84;;;-142.29;60.67
7748;BME280;3918;42.564;23.164;2023-04-19T11:31:42;-11650.84;;;-142.29;59.95
7748;BME280;3918;42.564;23.164;2023-04-19T11:34:10;-11650.84;;;-142.29;57.06
7748;BME280;3918;42.564;23.164;2023-04-19T11:36:46;-11650.84;;;-142.29;58.50
7748;BME280;3918;42.564;23.164;2023-04-19T11:39:13;-11650.84;;;-142.29;61.16
7748;BME280;3918;42.564;23.164;2023-04-19T11:41:40;-11650.84;;;-142.29;60.20
7748;BME280;3918;42.564;23.164;2023-04-19T11:44:15;-11650.84;;;-142.29;60.60
7748;BME280;3918;42.564;23.164;2023-04-19T11:46:57;-11650.84;;;-142.29;65.26
7748;BME280;3918;42.564;23.164;2023-04-19T11:49:25;-11650.84;;;-142.29;71.59
7748;BME280;3918;42.564;23.164;2023-04-19T11:51:55;-11650.84;;;-142.29;74.42
7748;BME280;3918;42.564;23.164;2023-04-19T11:54:25;-11650.84;;;-142.29;78.84
7748;BME280;3918;42.564;23.164;2023-04-19T11:56:59;-11650.84;;;-142.29;79.35
7748;BME280;3918;42.564;23.164;2023-04-19T11:59:29;-11650.84;;;-142.29;70.40
7748;BME280;3918;42.564;23.164;2023-04-19T12:02:07;-11650.84;;;-142.29;66.68
7748;BME280;3918;42.564;23.164;2023-04-19T12:04:34;-11650.84;;;-142.29;63.53
7748;BME280;3918;42.564;23.164;2023-04-19T12:07:02;-11650.84;;;-142.29;62.24
7748;BME280;3918;42.564;23.164;2023-04-19T12:09:32;-11650.84;;;-142.29;63.97
7748;BME280;3918;42.564;23.164;2023-04-19T12:11:59;-11650.84;;;-142.29;67.63
7748;BME280;3918;42.564;23.164;2023-04-19T12:14:26;-11650.84;;;-142.29;63.16
7748;BME280;3918;42.564;23.164;2023-04-19T12:17:08;-11650.84;;;-142.29;65.81
7748;BME280;3918;42.564;23.164;2023-04-19T12:19:40;-11650.84;;;-142.29;66.78
7748;BME280;3918;42.564;23.164;2023-04-19T12:22:08;-11650.84;;;-142.29;71.42
7748;BME280;3918;42.564;23.164;2023-04-19T12:24:36;-11650.84;;;-142.29;70.07
7748;BME280;3918;42.564;23.164;2023-04-19T12:27:03;-11650.84;;;-142.29;69.12
7748;BME280;3918;42.564;23.164;2023-04-19T12:29:30;-11650.84;;;-142.29;68.65
7748;BME280;3918;42.564;23.164;2023-04-19T12:31:57;-11650.84;;;-142.29;66.48
7748;BME280;3918;42.564;23.164;2023-04-19T12:34:25;-11650.84;;;-142.29;72.48
7748;BME280;3918;42.564;23.164;2023-04-19T12:36:52;-11650.84;;;-142.29;73.56
7748;BME280;3918;42.564;23.164;2023-04-19T12:39:18;-11650.84;;;-142.29;69.83
7748;BME280;3918;42.564;23.164;2023-04-19T12:41:45;-11650.84;;;-142.29;66.71
7748;BME280;3918;42.564;23.164;2023-04-19T12:44:13;-11650.84;;;-142.29;62.91
7748;BME280;3918;42.564;23.164;2023-04-19T12:46:40;-11650.84;;;-142.29;61.43
7748;BME280;3918;42.564;23.164;2023-04-19T12:49:07;-11650.84;;;-142.29;63.13
7748;BME280;3918;42.564;23.164;2023-04-19T12:51:35;-11650.84;;;-142.29;66.64
7748;BME280;3918;42.564;23.164;2023-04-19T12:54:01;-11650.84;;;-142.29;64.67
7748;BME280;3918;42.564;23.164;2023-04-19T12:56:28;-11650.84;;;-142.29;64.51
7748;BME280;3918;42.564;23.164;2023-04-19T12:58:55;-11650.84;;;-142.29;63.54
7748;BME280;3918;42.564;23.164;2023-04-19T13:01:22;-11650.84;;;-142.29;61.18
7748;BME280;3918;42.564;23.164;2023-04-19T13:03:48;-11650.84;;;-142.29;64.57
7748;BME280;3918;42.564;23.164;2023-04-19T13:06:15;-11650.84;;;-142.29;63.97
7748;BME280;3918;42.564;23.164;2023-04-19T13:08:43;-11650.84;;;-142.29;65.68
7748;BME280;3918;42.564;23.164;2023-04-19T13:11:10;-11650.84;;;-142.29;67.03
7748;BME280;3918;42.564;23.164;2023-04-19T13:13:37;-11650.84;;;-142.29;69.43
7748;BME280;3918;42.564;23.164;2023-04-19T13:16:05;-11650.84;;;-142.29;67.27
7748;BME280;3918;42.564;23.164;2023-04-19T13:20:58;-11650.84;;;-142.29;61.09
7748;BME280;3918;42.564;23.164;2023-04-19T13:23:25;-11650.84;;;-142.29;60.56
7748;BME280;3918;42.564;23.164;2023-04-19T13:25:53;-11650.84;;;-142.29;57.80
7748;BME280;3918;42.564;23.164;2023-04-19T13:28:20;-11650.84;;;-142.29;55.88
7748;BME280;3918;42.564;23.164;2023-04-19T13:30:47;-11650.84;;;-142.29;57.00
7748;BME280;3918;42.564;23.164;2023-04-19T13:33:13;-11650.84;;;-142.29;56.38
7748;BME280;3918;42.564;23.164;2023-04-19T13:35:40;-11650.84;;;-142.29;56.65
7748;BME280;3918;42.564;23.164;2023-04-19T13:38:09;-11650.84;;;-142.29;56.32
7748;BME280;3918;42.564;23.164;2023-04-19T13:40:35;-11650.84;;;-142.29;54.94
7748;BME280;3918;42.564;23.164;2023-04-19T13:43:04;-11650.84;;;-142.29;54.41
7748;BME280;3918;42.564;23.164;2023-04-19T13:45:30;-11650.84;;;-142.29;54.87
7748;BME280;3918;42.564;23.164;2023-04-19T13:47:57;-11650.84;;;-142.29;53.42
7748;BME280;3918;42.564;23.164;2023-04-19T13:50:24;-11650.84;;;-142.29;53.79
7748;BME280;3918;42.564;23.164;2023-04-19T13:52:51;-11650.84;;;-142.29;53.97
7748;BME280;3918;42.564;23.164;2023-04-19T13:55:17;-11650.84;;;-142.29;55.63
7748;BME280;3918;42.564;23.164;2023-04-19T13:57:44;-11650.84;;;-142.29;56.19
7748;BME280;3918;42.564;23.164;2023-04-19T14:00:13;-11650.84;;;-142.29;58.63
7748;BME280;3918;42.564;23.164;2023-04-19T14:02:40;-11650.84;;;-142.29;61.92
7748;BME280;3918;42.564;23.164;2023-04-19T14:05:08;-11650.84;;;-142.29;71.68
7748;BME280;3918;42.564;23.164;2023-04-19T14:07:38;-11650.84;;;-142.29;78.90
7748;BME280;3918;42.564;23.164;2023-04-19T14:10:06;-11650.84;;;-142.29;81.52
7748;BME280;3918;42.564;23.164;2023-04-19T14:12:32;-11650.84;;;-142.29;83.08
7748;BME280;3918;42.564;23.164;2023-04-19T14:14:59;-11650.84;;;-142.29;85.33
7748;BME280;3918;42.564;23.164;2023-04-19T14:17:27;-11650.84;;;-142.29;85.60
7748;BME280;3918;42.564;23.164;2023-04-19T14:19:54;-11650.84;;;-142.29;83.20
7748;BME280;3918;42.564;23.164;2023-04-19T14:22:21;-11650.84;;;-142.29;84.41
7748;BME280;3918;42.564;23.164;2023-04-19T14:24:48;-11650.84;;;-142.29;81.04
7748;BME280;3918;42.564;23.164;2023-04-19T14:27:15;-11650.84;;;-142.29;81.53
7748;BME280;3918;42.564;23.164;2023-04-19T14:29:42;-11650.84;;;-142.29;80.12
7748;BME280;3918;42.564;23.164;2023-04-19T14:32:08;-11650.84;;;-142.29;80.24
7748;BME280;3918;42.564;23.164;2023-04-19T14:34:36;-11650.84;;;-142.29;80.53
7748;BME280;3918;42.564;23.164;2023-04-19T14:37:03;-11650.84;;;-142.29;81.15
7748;BME280;3918;42.564;23.164;2023-04-19T14:39:30;-11650.84;;;-142.29;77.43
7748;BME280;3918;42.564;23.164;2023-04-19T14:41:57;-11650.84;;;-142.29;80.47
7748;BME280;3918;42.564;23.164;2023-04-19T14:44:23;-11650.84;;;-142.29;79.01
7748;BME280;3918;42.564;23.164;2023-04-19T14:46:50;-11650.84;;;-142.29;80.37
7748;BME280;3918;42.564;23.164;2023-04-19T14:49:17;-11650.84;;;-142.29;78.50
7748;BME280;3918;42.564;23.164;2023-04-19T14:51:45;-11650.84;;;-142.29;76.03
7748;BME280;3918;42.564;23.164;2023-04-19T14:54:12;-11650.84;;;-142.29;72.52
7748;BME280;3918;42.564;23.164;2023-04-19T14:56:39;-11650.84;;;-142.29;71.96
7748;BME280;3918;42.564;23.164;2023-04-19T14:59:05;-11650.84;;;-142.29;70.31
7748;BME280;3918;42.564;23.164;2023-04-19T15:01:32;-11650.84;;;-142.29;66.65
7748;BME280;3918;42.564;23.164;2023-04-19T15:03:59;-11650.84;;;-142.29;72.23
7748;BME280;3918;42.564;23.164;2023-04-19T15:06:26;-11650.84;;;-142.29;72.49
7748;BME280;3918;42.564;23.164;2023-04-19T15:08:54;-11650.84;;;-142.29;76.15
7748;BME280;3918;42.564;23.164;2023-04-19T15:11:21;-11650.84;;;-142.29;73.10
7748;BME280;3918;42.564;23.164;2023-04-19T15:13:48;-11650.84;;;-142.29;69.27
7748;BME280;3918;42.564;23.164;2023-04-19T15:16:15;-11650.84;;;-142.29;67.52
7748;BME280;3918;42.564;23.164;2023-04-19T15:18:42;-11650.84;;;-142.29;67.52
7748;BME280;3918;42.564;23.164;2023-04-19T15:21:09;-11650.84;;;-142.29;66.87
7748;BME280;3918;42.564;23.164;2023-04-19T15:23:36;-11650.84;;;-142.29;68.07
7748;BME280;3918;42.564;23.164;2023-04-19T15:26:04;-11650.84;;;-142.29;67.60
7748;BME280;3918;42.564;23.164;2023-04-19T15:28:32;-11650.84;;;-142.29;71.26
7748;BME280;3918;42.564;23.164;2023-04-19T15:31:02;-11650.84;;;-142.29;69.40
7748;BME280;3918;42.564;23.164;2023-04-19T15:33:29;-11650.84;;;-142.29;69.24
7748;BME280;3918;42.564;23.164;2023-04-19T15:35:56;-11650.84;;;-142.29;67.71
7748;BME280;3918;42.564;23.164;2023-04-19T15:38:24;-11650.84;;;-142.29;65.76
7748;BME280;3918;42.564;23.164;2023-04-19T15:40:53;-11650.84;;;-142.29;68.40
7748;BME280;3918;42.564;23.164;2023-04-19T15:43:21;-11650.84;;;-142.29;64.11
7748;BME280;3918;42.564;23.164;2023-04-19T15:45:48;-11650.84;;;-142.29;64.78
7748;BME280;3918;42.564;23.164;2023-04-19T15:48:15;-11650.84;;;-142.29;67.27
7748;BME280;3918;42.564;23.164;2023-04-19T15:50:42;-11650.84;;;-142.29;70.86
7748;BME280;3918;42.564;23.164;2023-04-19T15:53:09;-11650.84;;;-142.29;72.93
7748;BME280;3918;42.564;23.164;2023-04-19T15:55:35;-11650.84;;;-142.29;77.70
7748;BME280;3918;42.564;23.164;2023-04-19T15:58:03;-11650.84;;;-142.29;78.43
7748;BME280;3918;42.564;23.164;2023-04-19T16:00:32;-11650.84;;;-142.29;76.87
7748;BME280;3918;42.564;23.164;2023-04-19T16:02:58;-11650.84;;;-142.29;78.62
7748;BME280;3918;42.564;23.164;2023-04-19T16:05:25;-11650.84;;;-142.29;78.09
7748;BME280;3918;42.564;23.164;2023-04-19T16:08:00;-11650.84;;;-142.29;80.47
7748;BME280;3918;42.564;23.164;2023-04-19T16:10:27;-11650.84;;;-142.29;75.65
7748;BME280;3918;42.564;23.164;2023-04-19T16:12:54;-11650.84;;;-142.29;71.39
7748;BME280;3918;42.564;23.164;2023-04-19T16:15:21;-11650.84;;;-142.29;80.10
7748;BME280;3918;42.564;23.164;2023-04-19T16:17:50;-11650.84;;;-142.29;83.06
7748;BME280;3918;42.564;23.164;2023-04-19T16:20:17;-11650.84;;;-142.29;83.21
7748;BME280;3918;42.564;23.164;2023-04-19T16:22:44;-11650.84;;;-142.29;86.53
7748;BME280;3918;42.564;23.164;2023-04-19T16:25:11;-11650.84;;;-142.29;90.00
7748;BME280;3918;42.564;23.164;2023-04-19T16:27:39;-11650.84;;;-142.29;92.71
7748;BME280;3918;42.564;23.164;2023-04-19T16:30:08;-11650.84;;;-142.29;95.74
7748;BME280;3918;42.564;23.164;2023-04-19T16:32:35;-11650.84;;;-142.29;100.00
7748;BME280;3918;42.564;23.164;2023-04-19T16:35:05;-11650.84;;;-142.29;100.00
7748;BME280;3918;42.564;23.164;2023-04-19T16:37:32;-11650.84;;;-142.29;100.00
7748;BME280;3918;42.564;23.164;2023-04-19T16:40:01;-11650.84;;;-142.29;100.00
7748;BME280;3918;42.564;23.164;2023-04-19T16:42:29;-11650.84;;;-142.29;100.00
7748;BME280;3918;42.564;23.164;2023-04-19T16:44:55;-11650.84;;;-142.29;100.00
7748;BME280;3918;42.564;23.164;2023-04-19T16:47:22;-11650.84;;;-142.29;100.00
7748;BME280;3918;42.564;23.164;2023-04-19T16:49:49;-11650.84;;;-142.29;100.00